createdAt,value
2022-08-31T00:00:24.515Z,59.06
2022-08-31T00:03:32.995Z,59.04
2022-08-31T00:06:24.999Z,58.88
2022-08-31T00:09:15.183Z,58.85
2022-08-31T00:12:06.056Z,58.77
2022-08-31T00:14:57.351Z,58.92
2022-08-31T00:17:48.910Z,59.05
2022-08-31T00:20:40.533Z,58.99
2022-08-31T00:23:31.385Z,58.97
2022-08-31T00:26:24.929Z,59.02
2022-08-31T00:29:16.554Z,59.01
2022-08-31T00:32:07.357Z,58.94
2022-08-31T00:34:57.934Z,59.00
2022-08-31T00:37:48.622Z,59.04
2022-08-31T00:40:44.797Z,59.02
2022-08-31T00:43:43.520Z,58.99
2022-08-31T00:46:41.181Z,58.96
2022-08-31T00:49:35.609Z,58.93
2022-08-31T00:52:37.428Z,58.87
2022-08-31T00:55:34.038Z,58.88
2022-08-31T00:58:27.256Z,58.90
2022-08-31T01:01:20.197Z,59.05
2022-08-31T01:04:11.339Z,59.05
2022-08-31T01:07:03.230Z,59.22
2022-08-31T01:09:55.990Z,59.32
2022-08-31T01:12:49.655Z,59.46
2022-08-31T01:15:46.103Z,59.40
2022-08-31T01:18:37.670Z,59.38
2022-08-31T01:21:32.020Z,59.24
2022-08-31T01:24:26.655Z,59.24
2022-08-31T01:27:21.795Z,59.02
2022-08-31T01:30:21.523Z,58.79
2022-08-31T01:33:13.382Z,58.80
2022-08-31T01:36:05.856Z,58.66
2022-08-31T01:38:56.838Z,58.73
2022-08-31T01:41:52.044Z,58.65
2022-08-31T01:44:43.299Z,58.72
2022-08-31T01:47:34.701Z,58.83
2022-08-31T01:50:25.945Z,59.00
2022-08-31T01:53:19.711Z,59.10
2022-08-31T01:56:17.175Z,59.26
2022-08-31T01:59:11.708Z,59.29
2022-08-31T02:02:21.605Z,59.40
2022-08-31T02:05:14.647Z,59.48
2022-08-31T02:08:11.474Z,59.54
2022-08-31T02:11:02.306Z,59.44
2022-08-31T02:13:54.078Z,59.39
2022-08-31T02:16:46.647Z,59.28
2022-08-31T02:19:38.034Z,59.28
2022-08-31T02:22:29.414Z,59.26
2022-08-31T02:25:19.813Z,59.28
2022-08-31T02:28:12.841Z,59.29
2022-08-31T02:31:04.251Z,59.19
2022-08-31T02:33:55.390Z,59.20
2022-08-31T02:36:46.489Z,59.22
2022-08-31T02:39:38.335Z,59.29
2022-08-31T02:42:40.818Z,59.48
2022-08-31T02:45:42.526Z,59.44
2022-08-31T02:48:38.180Z,59.53
2022-08-31T02:51:30.946Z,59.60
2022-08-31T02:54:22.547Z,59.35
2022-08-31T02:57:13.857Z,59.42
2022-08-31T03:00:04.847Z,59.46
2022-08-31T03:02:56.115Z,59.51
2022-08-31T03:05:47.054Z,59.45
2022-08-31T03:08:42.631Z,59.55
2022-08-31T03:11:33.455Z,59.61
2022-08-31T03:14:25.906Z,59.62
2022-08-31T03:17:18.777Z,59.77
2022-08-31T03:20:10.927Z,59.82
2022-08-31T03:23:05.333Z,59.71
2022-08-31T03:25:56.465Z,59.63
2022-08-31T03:28:47.432Z,59.65
2022-08-31T03:32:10.056Z,59.64
2022-08-31T03:35:02.359Z,59.55
2022-08-31T03:37:53.975Z,59.63
2022-08-31T03:40:46.062Z,59.71
2022-08-31T03:43:37.352Z,59.63
2022-08-31T03:46:28.922Z,59.61
2022-08-31T03:49:20.900Z,59.51
2022-08-31T03:52:27.519Z,59.52
2022-08-31T03:55:23.965Z,59.45
2022-08-31T03:58:16.152Z,59.53
2022-08-31T04:01:07.508Z,59.64
2022-08-31T04:04:20.801Z,59.77
2022-08-31T04:07:30.518Z,59.78
2022-08-31T04:10:55.250Z,59.83
2022-08-31T04:14:04.691Z,59.66
2022-08-31T04:17:01.850Z,59.62
2022-08-31T04:20:01.360Z,59.52
2022-08-31T04:22:59.795Z,59.58
2022-08-31T04:25:59.561Z,59.57
2022-08-31T04:28:50.715Z,59.55
2022-08-31T04:31:41.933Z,59.47
2022-08-31T04:34:33.395Z,59.58
2022-08-31T04:37:23.815Z,59.47
2022-08-31T04:40:18.485Z,59.43
2022-08-31T04:43:11.465Z,59.32
2022-08-31T04:46:03.753Z,59.31
2022-08-31T04:48:54.571Z,59.46
2022-08-31T04:51:46.282Z,59.28
2022-08-31T04:54:38.395Z,59.21
2022-08-31T04:57:29.615Z,59.28
2022-08-31T05:00:21.483Z,59.30
2022-08-31T05:03:42.686Z,59.26
2022-08-31T05:06:36.385Z,59.33
2022-08-31T05:09:27.482Z,59.53
2022-08-31T05:12:18.845Z,59.53
2022-08-31T05:15:10.247Z,59.34
2022-08-31T05:18:02.234Z,59.40
2022-08-31T05:20:54.988Z,59.45
2022-08-31T05:23:47.297Z,59.83
2022-08-31T05:26:41.922Z,58.90
2022-08-31T05:29:33.042Z,58.27
2022-08-31T05:32:53.159Z,57.99
2022-08-31T05:35:44.092Z,57.79
2022-08-31T05:38:35.289Z,57.61
2022-08-31T05:41:26.600Z,57.24
2022-08-31T05:44:21.333Z,56.94
2022-08-31T05:47:13.423Z,56.74
2022-08-31T05:50:03.588Z,56.55
2022-08-31T05:53:00.488Z,56.58
2022-08-31T05:56:02.387Z,56.50
2022-08-31T05:58:56.928Z,56.54
2022-08-31T06:01:49.377Z,56.51
2022-08-31T06:04:45.677Z,56.63
2022-08-31T06:07:36.318Z,56.18
2022-08-31T06:10:33.546Z,55.91
2022-08-31T06:13:26.606Z,55.76
2022-08-31T06:16:18.842Z,55.69
2022-08-31T06:19:10.448Z,55.61
2022-08-31T06:22:02.634Z,55.50
2022-08-31T06:24:55.283Z,55.38
2022-08-31T06:27:47.721Z,55.51
2022-08-31T06:30:54.875Z,55.45
2022-08-31T06:33:46.287Z,55.28
2022-08-31T06:36:45.911Z,55.20
2022-08-31T06:39:45.165Z,55.14
2022-08-31T06:42:55.118Z,55.13
2022-08-31T06:45:58.421Z,55.07
2022-08-31T06:48:57.231Z,54.95
2022-08-31T06:51:48.829Z,55.00
2022-08-31T06:54:39.897Z,54.75
2022-08-31T06:57:49.745Z,54.47
2022-08-31T07:00:59.764Z,54.18
2022-08-31T07:04:03.738Z,53.88
2022-08-31T07:06:54.378Z,53.69
2022-08-31T07:09:45.428Z,53.46
2022-08-31T07:12:36.598Z,53.18
2022-08-31T07:15:28.090Z,52.93
2022-08-31T07:18:18.803Z,52.51
2022-08-31T07:21:17.337Z,52.39
2022-08-31T07:24:10.285Z,52.75
2022-08-31T07:27:04.804Z,52.85
2022-08-31T07:30:33.482Z,52.89
2022-08-31T07:33:25.819Z,52.81
2022-08-31T07:36:20.569Z,52.87
2022-08-31T07:39:54.446Z,52.99
2022-08-31T07:42:48.086Z,52.81
2022-08-31T07:45:39.449Z,52.82
2022-08-31T07:48:31.438Z,52.85
2022-08-31T07:51:46.292Z,52.89
2022-08-31T07:54:48.239Z,52.99
2022-08-31T07:57:50.862Z,52.93
2022-08-31T08:00:43.677Z,52.83
2022-08-31T08:03:34.315Z,52.87
2022-08-31T08:06:43.241Z,52.56
2022-08-31T08:09:56.698Z,52.27
2022-08-31T08:13:13.485Z,52.44
2022-08-31T08:16:17.676Z,52.25
2022-08-31T08:19:41.517Z,51.79
2022-08-31T08:22:51.754Z,51.60
2022-08-31T08:25:54.789Z,50.88
2022-08-31T08:28:52.813Z,50.98
2022-08-31T08:31:52.197Z,50.90
2022-08-31T08:34:46.175Z,50.90
2022-08-31T08:37:57.118Z,50.72
2022-08-31T08:40:52.254Z,50.51
2022-08-31T08:43:52.209Z,50.26
2022-08-31T08:46:49.855Z,50.26
2022-08-31T08:49:54.339Z,50.00
2022-08-31T08:52:48.921Z,49.55
2022-08-31T08:55:42.682Z,49.09
2022-08-31T08:58:35.717Z,49.04
2022-08-31T09:01:29.695Z,49.14
2022-08-31T09:04:39.881Z,49.03
2022-08-31T09:08:10.342Z,48.77
2022-08-31T09:11:14.910Z,48.89
2022-08-31T09:14:19.354Z,48.64
2022-08-31T09:17:17.939Z,48.37
2022-08-31T09:20:09.676Z,48.33
2022-08-31T09:23:00.954Z,48.36
2022-08-31T09:25:53.394Z,48.53
2022-08-31T09:28:56.129Z,48.58
2022-08-31T09:31:46.883Z,48.55
2022-08-31T09:34:38.779Z,48.61
2022-08-31T09:37:33.644Z,48.54
2022-08-31T09:40:36.342Z,48.68
2022-08-31T09:43:38.322Z,48.47
2022-08-31T09:46:31.862Z,48.46
2022-08-31T09:49:28.802Z,48.60
2022-08-31T09:52:44.701Z,48.28
2022-08-31T09:55:35.564Z,48.46
2022-08-31T09:58:31.039Z,48.54
2022-08-31T10:01:32.788Z,48.48
2022-08-31T10:04:27.482Z,48.53
2022-08-31T10:07:30.185Z,48.59
2022-08-31T10:10:30.476Z,48.31
2022-08-31T10:13:29.336Z,48.64
2022-08-31T10:16:27.035Z,48.47
2022-08-31T10:19:21.573Z,48.46
2022-08-31T10:22:25.751Z,48.56
2022-08-31T10:25:24.567Z,48.71
2022-08-31T10:28:20.936Z,48.66
2022-08-31T10:31:23.878Z,48.77
2022-08-31T10:34:35.502Z,48.76
2022-08-31T10:37:31.940Z,48.79
2022-08-31T10:40:27.738Z,49.04
2022-08-31T10:43:22.011Z,48.97
2022-08-31T10:46:12.753Z,48.71
2022-08-31T10:49:06.345Z,48.64
2022-08-31T10:52:09.686Z,48.58
2022-08-31T10:55:13.211Z,48.82
2022-08-31T10:58:14.838Z,48.95
2022-08-31T11:01:11.224Z,49.01
2022-08-31T11:04:29.921Z,49.30
2022-08-31T11:07:36.287Z,49.40
2022-08-31T11:10:34.218Z,49.43
2022-08-31T11:13:48.643Z,49.51
2022-08-31T11:17:03.525Z,49.71
2022-08-31T11:20:19.934Z,49.65
2022-08-31T11:23:29.976Z,49.69
2022-08-31T11:26:42.467Z,49.78
2022-08-31T11:29:46.679Z,49.93
2022-08-31T11:32:45.910Z,50.05
2022-08-31T11:36:06.749Z,50.25
2022-08-31T11:39:40.484Z,50.13
2022-08-31T11:43:01.395Z,50.05
2022-08-31T11:45:52.597Z,50.41
2022-08-31T11:49:00.815Z,50.58
2022-08-31T11:51:57.401Z,50.50
2022-08-31T11:55:08.163Z,50.35
2022-08-31T11:58:27.590Z,50.30
2022-08-31T12:01:47.423Z,50.49
2022-08-31T12:05:03.847Z,50.79
2022-08-31T12:07:54.254Z,50.86
2022-08-31T12:10:56.736Z,50.81
2022-08-31T12:13:56.953Z,51.01
2022-08-31T12:17:03.396Z,51.17
2022-08-31T12:20:07.712Z,51.03
2022-08-31T12:23:32.164Z,51.21
2022-08-31T12:26:45.150Z,51.26
2022-08-31T12:29:37.878Z,50.92
2022-08-31T12:32:36.611Z,51.24
2022-08-31T12:35:28.353Z,51.34
2022-08-31T12:38:23.493Z,51.50
2022-08-31T12:41:15.855Z,51.51
2022-08-31T12:44:14.334Z,51.86
2022-08-31T12:47:11.759Z,51.79
2022-08-31T12:50:13.818Z,51.78
2022-08-31T12:53:46.389Z,51.91
2022-08-31T12:56:45.493Z,51.84
2022-08-31T12:59:59.781Z,51.90
2022-08-31T13:02:54.279Z,51.79
2022-08-31T13:06:00.409Z,51.69
2022-08-31T13:08:54.192Z,51.91
2022-08-31T13:11:44.682Z,52.11
2022-08-31T13:14:43.786Z,52.30
2022-08-31T13:17:39.587Z,52.31
2022-08-31T13:20:41.201Z,52.24
2022-08-31T13:23:37.088Z,51.77
2022-08-31T13:26:27.935Z,51.90
2022-08-31T13:29:25.468Z,51.95
2022-08-31T13:32:32.568Z,51.97
2022-08-31T13:35:26.208Z,51.96
2022-08-31T13:38:17.578Z,52.18
2022-08-31T13:41:08.386Z,52.15
2022-08-31T13:44:03.755Z,52.08
2022-08-31T13:47:01.595Z,52.20
2022-08-31T13:49:55.542Z,52.11
2022-08-31T13:53:22.496Z,51.97
2022-08-31T13:56:44.099Z,51.93
2022-08-31T13:59:43.372Z,52.11
2022-08-31T14:02:39.630Z,52.09
2022-08-31T14:05:36.553Z,52.22
2022-08-31T14:08:28.410Z,52.09
2022-08-31T14:11:19.765Z,52.17
2022-08-31T14:14:13.537Z,52.44
2022-08-31T14:17:03.639Z,52.32
2022-08-31T14:19:54.127Z,52.48
2022-08-31T14:22:46.687Z,52.62
2022-08-31T14:25:38.009Z,52.85
2022-08-31T14:28:40.560Z,53.02
2022-08-31T14:31:34.930Z,52.95
2022-08-31T14:34:30.571Z,53.06
2022-08-31T14:37:23.201Z,53.19
2022-08-31T14:40:14.157Z,53.36
2022-08-31T14:43:04.393Z,53.78
2022-08-31T14:45:58.153Z,53.88
2022-08-31T14:48:48.953Z,53.85
2022-08-31T14:51:41.602Z,53.84
2022-08-31T14:54:34.850Z,54.03
2022-08-31T14:57:27.664Z,54.00
2022-08-31T15:00:23.311Z,54.07
2022-08-31T15:03:15.133Z,54.07
2022-08-31T15:06:05.778Z,54.04
2022-08-31T15:08:56.025Z,54.03
2022-08-31T15:11:46.427Z,54.22
2022-08-31T15:14:38.123Z,54.08
2022-08-31T15:17:30.064Z,54.26
2022-08-31T15:20:23.334Z,54.35
2022-08-31T15:23:16.251Z,54.33
2022-08-31T15:26:10.226Z,54.28
2022-08-31T15:29:02.879Z,54.41
2022-08-31T15:31:55.298Z,54.40
2022-08-31T15:34:53.593Z,54.47
2022-08-31T15:37:45.442Z,54.62
2022-08-31T15:40:39.998Z,54.45
2022-08-31T15:43:31.002Z,54.54
2022-08-31T15:46:42.531Z,54.53
2022-08-31T15:49:33.673Z,54.74
2022-08-31T15:52:25.861Z,54.86
2022-08-31T15:55:17.639Z,55.01
2022-08-31T15:58:09.779Z,55.19
2022-08-31T16:01:00.828Z,55.14
2022-08-31T16:03:54.253Z,55.29
2022-08-31T16:06:48.621Z,55.28
2022-08-31T16:09:41.073Z,55.48
2022-08-31T16:12:31.465Z,55.42
2022-08-31T16:15:24.730Z,55.38
2022-08-31T16:18:15.308Z,55.64
2022-08-31T16:21:09.986Z,55.61
2022-08-31T16:24:02.528Z,55.78
2022-08-31T16:26:57.777Z,55.81
2022-08-31T16:29:50.990Z,55.90
2022-08-31T16:32:41.825Z,56.16
2022-08-31T16:35:32.215Z,56.32
2022-08-31T16:38:22.809Z,56.12
2022-08-31T16:41:14.174Z,55.99
2022-08-31T16:44:21.575Z,55.83
2022-08-31T16:47:12.627Z,56.14
2022-08-31T16:50:08.774Z,56.07
2022-08-31T16:53:00.179Z,56.14
2022-08-31T16:55:50.247Z,56.17
2022-08-31T16:58:51.841Z,56.44
2022-08-31T17:01:47.219Z,56.27
2022-08-31T17:04:52.207Z,56.38
2022-08-31T17:07:43.895Z,56.33
2022-08-31T17:10:34.618Z,56.36
2022-08-31T17:13:27.026Z,56.45
2022-08-31T17:16:21.395Z,56.30
2022-08-31T17:19:13.495Z,56.44
2022-08-31T17:22:06.182Z,56.43
2022-08-31T17:24:57.853Z,56.39
2022-08-31T17:27:51.327Z,56.74
2022-08-31T17:30:47.038Z,56.71
2022-08-31T17:33:38.617Z,56.51
2022-08-31T17:36:37.344Z,56.61
2022-08-31T17:39:29.356Z,56.66
2022-08-31T17:42:21.021Z,56.67
2022-08-31T17:45:13.122Z,56.71
2022-08-31T17:48:03.700Z,56.84
2022-08-31T17:50:54.532Z,56.83
2022-08-31T17:53:44.544Z,56.98
2022-08-31T17:56:42.312Z,56.78
2022-08-31T17:59:41.091Z,56.90
2022-08-31T18:02:34.841Z,57.09
2022-08-31T18:05:25.092Z,56.79
2022-08-31T18:08:19.412Z,56.80
2022-08-31T18:11:10.877Z,56.79
2022-08-31T18:14:01.397Z,56.93
2022-08-31T18:16:59.194Z,56.97
2022-08-31T18:19:49.791Z,57.07
2022-08-31T18:22:40.355Z,57.18
2022-08-31T18:25:36.003Z,57.05
2022-08-31T18:28:27.419Z,57.08
2022-08-31T18:31:20.860Z,57.09
2022-08-31T18:34:14.158Z,57.07
2022-08-31T18:37:04.829Z,57.20
2022-08-31T18:40:12.852Z,57.23
2022-08-31T18:43:20.465Z,57.27
2022-08-31T18:46:11.127Z,57.35
2022-08-31T18:49:12.103Z,57.48
2022-08-31T18:52:03.327Z,57.36
2022-08-31T18:54:55.064Z,57.39
2022-08-31T18:57:49.134Z,57.66
2022-08-31T19:00:40.470Z,57.30
2022-08-31T19:03:31.054Z,57.44
2022-08-31T19:06:23.937Z,57.35
2022-08-31T19:09:19.430Z,57.24
2022-08-31T19:12:13.669Z,57.26
2022-08-31T19:15:04.598Z,57.30
2022-08-31T19:17:55.074Z,57.31
2022-08-31T19:20:45.163Z,57.32
2022-08-31T19:23:36.241Z,57.14
2022-08-31T19:26:30.190Z,57.30
2022-08-31T19:29:24.650Z,57.31
2022-08-31T19:32:18.103Z,57.33
2022-08-31T19:35:10.568Z,57.10
2022-08-31T19:38:01.479Z,56.97
2022-08-31T19:40:51.913Z,57.12
2022-08-31T19:43:53.322Z,57.13
2022-08-31T19:46:53.412Z,56.89
2022-08-31T19:49:47.711Z,56.71
2022-08-31T19:52:39.701Z,56.51
2022-08-31T19:55:30.603Z,56.67
2022-08-31T19:58:26.653Z,56.68
2022-08-31T20:01:18.305Z,56.88
2022-08-31T20:04:16.341Z,57.09
2022-08-31T20:07:07.822Z,57.08
2022-08-31T20:10:01.598Z,56.88
2022-08-31T20:12:52.466Z,56.67
2022-08-31T20:15:47.230Z,56.50
2022-08-31T20:18:38.379Z,56.55
2022-08-31T20:21:33.706Z,56.74
2022-08-31T20:24:27.026Z,56.66
2022-08-31T20:27:18.725Z,56.66
2022-08-31T20:30:10.718Z,56.59
2022-08-31T20:33:00.802Z,56.75
2022-08-31T20:35:50.883Z,56.79
2022-08-31T20:38:43.734Z,56.99
2022-08-31T20:41:36.593Z,56.84
2022-08-31T20:44:29.094Z,56.74
2022-08-31T20:47:36.558Z,56.73
2022-08-31T20:50:29.828Z,56.89
2022-08-31T20:53:42.445Z,57.04
2022-08-31T20:56:32.159Z,56.82
2022-08-31T20:59:24.002Z,56.94
2022-08-31T21:02:19.919Z,56.87
2022-08-31T21:05:37.928Z,56.83
2022-08-31T21:08:22.788Z,56.78
2022-08-31T21:11:17.519Z,56.73
2022-08-31T21:14:07.878Z,56.82
2022-08-31T21:16:58.203Z,56.77
2022-08-31T21:19:49.593Z,56.78
2022-08-31T21:22:39.999Z,56.51
2022-08-31T21:25:29.679Z,56.57
2022-08-31T21:28:19.865Z,56.45
2022-08-31T21:31:18.351Z,56.36
2022-08-31T21:34:10.816Z,56.37
2022-08-31T21:37:01.641Z,56.60
2022-08-31T21:39:57.657Z,56.78
2022-08-31T21:42:49.628Z,56.66
2022-08-31T21:45:40.492Z,56.77
2022-08-31T21:48:31.607Z,56.76
2022-08-31T21:51:26.317Z,56.75
2022-08-31T21:54:17.905Z,56.81
2022-08-31T21:57:09.020Z,56.84
2022-08-31T21:59:59.810Z,56.81
2022-08-31T22:02:50.982Z,56.78
2022-08-31T22:05:43.608Z,57.00
2022-08-31T22:08:34.425Z,57.15
2022-08-31T22:11:28.822Z,57.03
2022-08-31T22:14:23.248Z,57.04
2022-08-31T22:17:14.718Z,57.05
2022-08-31T22:20:05.353Z,57.15
2022-08-31T22:22:55.378Z,57.18
2022-08-31T22:25:47.187Z,57.25
2022-08-31T22:28:37.455Z,57.33
2022-08-31T22:31:28.933Z,57.35
2022-08-31T22:34:21.038Z,57.36
2022-08-31T22:37:13.925Z,57.35
2022-08-31T22:40:04.043Z,57.29
2022-08-31T22:42:55.406Z,57.37
2022-08-31T22:45:48.934Z,57.39
2022-08-31T22:48:40.691Z,57.37
2022-08-31T22:51:31.330Z,57.38
2022-08-31T22:54:22.371Z,57.42
2022-08-31T22:57:14.490Z,57.38
2022-08-31T23:00:05.702Z,57.18
2022-08-31T23:02:56.669Z,57.18
2022-08-31T23:05:48.222Z,57.16
2022-08-31T23:08:39.489Z,57.29
2022-08-31T23:11:31.275Z,57.51
2022-08-31T23:14:22.868Z,57.63
2022-08-31T23:17:16.843Z,57.79
2022-08-31T23:20:07.450Z,57.67
2022-08-31T23:23:01.154Z,57.69
2022-08-31T23:25:53.038Z,57.57
2022-08-31T23:28:47.324Z,57.52
2022-08-31T23:31:39.560Z,57.44
2022-08-31T23:34:30.412Z,57.27
2022-08-31T23:37:23.270Z,57.22
2022-08-31T23:40:17.271Z,57.18
2022-08-31T23:43:11.077Z,57.35
2022-08-31T23:46:04.492Z,57.46
2022-08-31T23:48:55.713Z,57.33
2022-08-31T23:51:46.466Z,57.28
2022-08-31T23:54:37.821Z,57.14
2022-08-31T23:57:32.331Z,57.14
